| Date | Time | Temp. (oF) | Dew Point (oF) | Rel. Hum. (%) | Press. (in.) | Wind Dir. | Wind Speed (mph) | Hourly Rainfall (in.) |
|
|---|---|---|---|---|---|---|---|---|---|
| 1 | 12/28 | 00:00 | 13 | 0 | 54 | 30.57 | NW | 6 | 0.00 |
| 2 | 12/27 | 23:00 | 13 | -1 | 52 | 30.56 | NW | 7 | 0.00 |
| 3 | 12/27 | 22:00 | 14 | -1 | 50 | 30.57 | WNW | 6 | 0.00 |
| 4 | 12/27 | 21:00 | 15 | 0 | 49 | 30.56 | NW | 12 | 0.00 |
| 5 | 12/27 | 20:00 | 16 | 0 | 49 | 30.55 | NW | 6 | 0.00 |
| 6 | 12/27 | 19:00 | 17 | 0 | 46 | 30.53 | NW | 9 | 0.00 |
| 7 | 12/27 | 18:00 | 18 | -1 | 42 | 30.51 | NNW | 7 | 0.00 |
| 8 | 12/27 | 17:00 | 20 | 0 | 42 | 30.46 | NNW | 11 | 0.00 |
| 9 | 12/27 | 16:00 | 22 | 0 | 39 | 30.44 | WNW | 8 | 0.00 |
| 10 | 12/27 | 15:00 | 23 | 2 | 40 | 30.42 | NW | 10 | 0.00 |
| 11 | 12/27 | 14:00 | 23 | 2 | 40 | 30.44 | W | 11 | 0.00 |
| 12 | 12/27 | 13:00 | 23 | 6 | 48 | 30.46 | WNW | 10 | 0.00 |
| 13 | 12/27 | 12:00 | 21 | 3 | 46 | 30.50 | N | 7 | 0.00 |
| 14 | 12/27 | 11:00 | 21 | 4 | 48 | 30.53 | NW | 9 | 0.00 |
| 15 | 12/27 | 10:00 | 18 | 2 | 50 | 30.53 | N | 10 | 0.00 |
| 16 | 12/27 | 09:00 | 18 | 2 | 49 | 30.52 | N | 9 | 0.00 |
| 17 | 12/27 | 08:00 | 18 | 2 | 49 | 30.51 | NNW | 11 | 0.00 |
| 18 | 12/27 | 07:00 | 19 | 6 | 57 | 30.51 | NNW | 4 | 0.00 |
| 19 | 12/27 | 06:00 | 18 | 4 | 56 | 30.49 | NNW | 6 | 0.00 |
| 20 | 12/27 | 05:00 | 19 | 5 | 56 | 30.48 | NW | 6 | 0.00 |
| 21 | 12/27 | 04:00 | 19 | 4 | 53 | 30.48 | NNW | 6 | 0.00 |
| 22 | 12/27 | 03:00 | 19 | 4 | 52 | 30.48 | NNW | 4 | 0.00 |
| 23 | 12/27 | 02:00 | 20 | 5 | 53 | 30.48 | N | 4 | 0.00 |
| 24 | 12/27 | 01:00 | 20 | 5 | 53 | 30.46 | NW | 4 | 0.00 |